createdAt,value
2023-07-02T00:02:22.292Z,93.30
2023-07-02T00:05:31.154Z,93.32
2023-07-02T00:08:39.770Z,93.04
2023-07-02T00:11:54.136Z,92.76
2023-07-02T00:15:10.182Z,92.46
2023-07-02T00:18:44.145Z,92.80
2023-07-02T00:21:52.945Z,92.51
2023-07-02T00:25:01.176Z,92.43
2023-07-02T00:28:16.165Z,92.48
2023-07-02T00:31:31.331Z,92.39
2023-07-02T00:34:40.192Z,91.85
2023-07-02T00:37:49.892Z,92.09
2023-07-02T00:41:05.156Z,92.23
2023-07-02T00:44:13.172Z,92.30
2023-07-02T00:47:21.748Z,92.27
2023-07-02T00:50:37.135Z,91.84
2023-07-02T00:53:47.085Z,91.70
2023-07-02T00:56:55.191Z,91.90
2023-07-02T01:00:10.162Z,91.40
2023-07-02T01:03:12.781Z,92.20
2023-07-02T01:06:31.154Z,94.46
2023-07-02T01:09:39.198Z,92.43
2023-07-02T01:12:56.186Z,91.71
2023-07-02T01:16:05.218Z,92.72
2023-07-02T01:19:21.197Z,92.14
2023-07-02T01:22:36.166Z,91.60
2023-07-02T01:25:44.837Z,91.35
2023-07-02T01:28:53.169Z,92.37
2023-07-02T01:32:01.855Z,92.04
2023-07-02T01:35:17.173Z,92.17
2023-07-02T01:38:25.196Z,91.55
2023-07-02T01:41:52.222Z,90.79
2023-07-02T01:45:00.805Z,90.22
2023-07-02T01:48:09.212Z,89.05
2023-07-02T01:51:31.206Z,88.97
2023-07-02T01:54:41.189Z,88.63
2023-07-02T01:57:49.800Z,87.89
2023-07-02T02:01:04.222Z,87.77
2023-07-02T02:04:06.194Z,87.98
2023-07-02T02:07:21.186Z,87.17
2023-07-02T02:10:36.192Z,87.27
2023-07-02T02:13:44.685Z,87.29
2023-07-02T02:16:59.248Z,87.07
2023-07-02T02:20:08.610Z,87.02
2023-07-02T02:23:17.203Z,85.62
2023-07-02T02:26:32.199Z,85.10
2023-07-02T02:29:40.758Z,85.68
2023-07-02T02:32:55.255Z,85.23
2023-07-02T02:36:04.044Z,84.61
2023-07-02T02:39:12.238Z,84.52
2023-07-02T02:42:20.683Z,85.03
2023-07-02T02:45:29.204Z,85.46
2023-07-02T02:48:44.215Z,84.48
2023-07-02T02:51:52.470Z,84.27
2023-07-02T02:55:07.215Z,84.26
2023-07-02T02:58:09.138Z,84.57
2023-07-02T03:01:24.214Z,84.17
2023-07-02T03:04:26.514Z,84.50
2023-07-02T03:07:41.198Z,84.82
2023-07-02T03:10:50.462Z,84.80
2023-07-02T03:14:05.199Z,84.47
2023-07-02T03:17:07.059Z,84.31
2023-07-02T03:20:22.188Z,84.38
2023-07-02T03:23:24.104Z,84.54
2023-07-02T03:26:39.201Z,84.13
2023-07-02T03:29:47.904Z,84.36
2023-07-02T03:32:56.244Z,84.29
2023-07-02T03:36:05.062Z,83.92
2023-07-02T03:39:20.221Z,84.12
2023-07-02T03:42:28.732Z,83.73
2023-07-02T03:45:43.246Z,84.10
2023-07-02T03:48:51.251Z,83.57
2023-07-02T03:52:07.033Z,83.22
2023-07-02T03:55:16.247Z,82.71
2023-07-02T03:58:24.856Z,82.67
2023-07-02T04:01:39.232Z,82.66
2023-07-02T04:04:47.879Z,83.04
2023-07-02T04:07:56.233Z,82.83
2023-07-02T04:11:11.228Z,82.26
2023-07-02T04:14:13.161Z,82.66
2023-07-02T04:17:28.241Z,82.44
2023-07-02T04:20:43.234Z,82.48
2023-07-02T04:23:51.734Z,81.48
2023-07-02T04:27:48.578Z,81.95
2023-07-02T04:30:29.032Z,81.81
2023-07-02T04:33:44.239Z,81.33
2023-07-02T04:36:53.932Z,81.20
2023-07-02T04:40:09.319Z,81.47
2023-07-02T04:43:17.796Z,81.22
2023-07-02T04:46:33.391Z,81.19
2023-07-02T04:49:55.212Z,82.15
2023-07-02T04:53:10.249Z,81.50
2023-07-02T04:56:18.810Z,81.43
2023-07-02T04:59:28.249Z,83.08
2023-07-02T05:02:43.259Z,83.45
2023-07-02T05:05:51.818Z,84.60
2023-07-02T05:09:06.248Z,81.40
2023-07-02T05:12:14.853Z,82.22
2023-07-02T05:15:23.246Z,81.29
2023-07-02T05:18:31.773Z,81.16
2023-07-02T05:21:46.237Z,80.83
2023-07-02T05:24:54.801Z,80.94
2023-07-02T05:28:09.263Z,80.94
2023-07-02T05:31:24.308Z,81.79
2023-07-02T05:34:32.959Z,81.22
2023-07-02T05:37:41.238Z,81.86
2023-07-02T05:40:56.237Z,80.60
2023-07-02T05:44:11.229Z,80.24
2023-07-02T05:47:27.443Z,78.89
2023-07-02T05:50:37.247Z,78.13
2023-07-02T05:53:45.801Z,75.75
2023-07-02T05:56:54.251Z,75.27
2023-07-02T06:00:08.954Z,74.93
2023-07-02T06:03:25.314Z,74.13
2023-07-02T06:06:27.472Z,74.84
2023-07-02T06:09:42.259Z,73.71
2023-07-02T06:12:50.826Z,73.58
2023-07-02T06:15:59.266Z,73.52
2023-07-02T06:19:14.280Z,73.47
2023-07-02T06:22:16.209Z,73.78
2023-07-02T06:25:31.298Z,73.60
2023-07-02T06:28:47.242Z,72.87
2023-07-02T06:31:49.178Z,73.09
2023-07-02T06:35:04.270Z,72.42
2023-07-02T06:38:06.114Z,71.66
2023-07-02T06:41:23.308Z,72.10
2023-07-02T06:44:31.286Z,72.27
2023-07-02T06:47:46.287Z,71.91
2023-07-02T06:50:55.319Z,71.43
2023-07-02T06:54:04.023Z,72.17
2023-07-02T06:57:12.300Z,71.68
2023-07-02T07:00:21.123Z,70.73
2023-07-02T07:03:36.360Z,71.00
2023-07-02T07:06:51.363Z,69.49
2023-07-02T07:09:59.807Z,68.05
2023-07-02T07:13:14.278Z,67.43
2023-07-02T07:16:16.118Z,67.07
2023-07-02T07:19:31.281Z,67.19
2023-07-02T07:22:39.809Z,66.35
2023-07-02T07:25:54.281Z,65.66
2023-07-02T07:29:09.308Z,63.28
2023-07-02T07:32:24.374Z,62.06
2023-07-02T07:35:39.300Z,60.71
2023-07-02T07:38:41.309Z,61.13
2023-07-02T07:41:56.289Z,59.39
2023-07-02T07:44:58.131Z,58.92
2023-07-02T07:48:13.288Z,57.34
2023-07-02T07:51:35.263Z,56.67
2023-07-02T07:54:50.290Z,55.66
2023-07-02T07:58:05.358Z,54.34
2023-07-02T08:01:13.826Z,54.37
2023-07-02T08:04:24.353Z,55.16
2023-07-02T08:07:39.299Z,52.94
2023-07-02T08:10:41.357Z,51.16
2023-07-02T08:13:56.355Z,51.18
2023-07-02T08:17:05.204Z,50.62
2023-07-02T08:20:14.389Z,51.98
2023-07-02T08:23:22.871Z,50.35
2023-07-02T08:26:37.323Z,51.45
2023-07-02T08:29:39.161Z,52.89
2023-07-02T08:32:54.366Z,54.88
2023-07-02T08:36:09.327Z,54.30
2023-07-02T08:39:18.312Z,53.58
2023-07-02T08:42:27.215Z,52.13
2023-07-02T08:45:43.322Z,53.69
2023-07-02T08:48:45.564Z,53.41
2023-07-02T08:52:00.303Z,54.28
2023-07-02T08:55:02.211Z,54.14
2023-07-02T08:58:18.324Z,54.50
2023-07-02T09:01:20.395Z,56.26
2023-07-02T09:04:35.339Z,56.33
2023-07-02T09:07:49.783Z,54.93
2023-07-02T09:11:13.331Z,53.80
2023-07-02T09:14:30.415Z,53.34
2023-07-02T09:17:45.376Z,53.72
2023-07-02T09:20:48.363Z,54.12
2023-07-02T09:24:03.312Z,54.68
2023-07-02T09:27:18.327Z,56.87
2023-07-02T09:30:26.318Z,56.35
2023-07-02T09:33:41.598Z,54.29
2023-07-02T09:36:50.028Z,53.13
2023-07-02T09:39:59.336Z,52.66
2023-07-02T09:43:08.000Z,52.44
2023-07-02T09:46:16.355Z,52.22
2023-07-02T09:49:33.342Z,51.32
2023-07-02T09:52:48.337Z,51.70
2023-07-02T09:56:03.333Z,51.81
2023-07-02T09:59:11.969Z,51.75
2023-07-02T10:02:26.426Z,50.88
2023-07-02T10:05:35.455Z,51.37
2023-07-02T10:09:03.361Z,50.39
2023-07-02T10:12:31.486Z,48.73
2023-07-02T10:15:40.122Z,50.26
2023-07-02T10:18:48.454Z,48.29
2023-07-02T10:22:04.912Z,50.25
2023-07-02T10:25:13.338Z,49.01
2023-07-02T10:28:28.352Z,50.93
2023-07-02T10:31:43.376Z,49.60
2023-07-02T10:34:58.359Z,48.91
2023-07-02T10:38:07.896Z,48.63
2023-07-02T10:41:35.353Z,48.08
2023-07-02T10:44:54.260Z,47.66
2023-07-02T10:48:16.359Z,46.69
2023-07-02T10:51:38.616Z,49.19
2023-07-02T10:54:48.070Z,46.74
2023-07-02T10:58:13.383Z,47.18
2023-07-02T11:01:29.974Z,48.38
2023-07-02T11:04:45.487Z,47.38
2023-07-02T11:07:47.522Z,48.11
2023-07-02T11:11:16.367Z,49.65
2023-07-02T11:14:41.365Z,45.91
2023-07-02T11:17:50.093Z,46.96
2023-07-02T11:21:05.767Z,47.82
2023-07-02T11:24:13.947Z,49.29
2023-07-02T11:27:29.377Z,49.53
2023-07-02T11:30:46.505Z,48.53
2023-07-02T11:33:55.363Z,47.54
2023-07-02T11:37:11.396Z,48.52
2023-07-02T11:40:20.129Z,48.35
2023-07-02T11:43:35.381Z,47.25
2023-07-02T11:46:50.384Z,46.77
2023-07-02T11:50:20.562Z,46.73
2023-07-02T11:53:40.634Z,46.98
2023-07-02T11:56:55.405Z,47.26
2023-07-02T11:59:57.395Z,47.94
2023-07-02T12:03:12.439Z,48.52
2023-07-02T12:06:21.084Z,48.16
2023-07-02T12:09:36.383Z,46.65
2023-07-02T12:12:52.400Z,46.65
2023-07-02T12:15:54.278Z,47.36
2023-07-02T12:19:09.457Z,48.24
2023-07-02T12:22:11.322Z,47.46
2023-07-02T12:25:29.506Z,47.81
2023-07-02T12:28:31.354Z,47.44
2023-07-02T12:31:46.392Z,47.63
2023-07-02T12:34:55.033Z,46.38
2023-07-02T12:38:03.399Z,47.91
2023-07-02T12:41:11.973Z,48.23
2023-07-02T12:44:20.427Z,48.57
2023-07-02T12:47:28.977Z,47.16
2023-07-02T12:50:45.403Z,47.65
2023-07-02T12:54:00.414Z,48.03
2023-07-02T12:57:08.973Z,48.14
2023-07-02T13:00:23.477Z,48.61
2023-07-02T13:03:32.537Z,45.34
2023-07-02T13:06:47.403Z,45.34
2023-07-02T13:09:56.178Z,45.07
2023-07-02T13:13:22.919Z,45.93
2023-07-02T13:16:32.498Z,48.70
2023-07-02T13:19:41.191Z,48.37
2023-07-02T13:22:49.420Z,49.60
2023-07-02T13:26:05.417Z,49.49
2023-07-02T13:29:14.982Z,48.62
2023-07-02T13:32:23.444Z,49.02
2023-07-02T13:35:32.197Z,49.31
2023-07-02T13:38:41.416Z,49.27
2023-07-02T13:41:51.442Z,47.19
2023-07-02T13:45:00.403Z,45.64
2023-07-02T13:48:15.453Z,45.68
2023-07-02T13:51:24.411Z,45.57
2023-07-02T13:54:39.900Z,46.28
2023-07-02T13:57:54.452Z,46.15
2023-07-02T14:00:56.689Z,45.55
2023-07-02T14:04:11.515Z,46.92
2023-07-02T14:07:20.186Z,45.29
2023-07-02T14:10:36.421Z,46.19
2023-07-02T14:13:45.225Z,47.23
2023-07-02T14:16:53.444Z,47.15
2023-07-02T14:20:03.264Z,47.53
2023-07-02T14:23:12.439Z,49.00
2023-07-02T14:26:21.160Z,49.72
2023-07-02T14:29:36.440Z,48.33
2023-07-02T14:32:45.255Z,47.97
2023-07-02T14:36:00.561Z,47.95
2023-07-02T14:39:34.470Z,49.78
2023-07-02T14:42:49.421Z,49.18
2023-07-02T14:46:07.451Z,49.24
2023-07-02T14:49:22.470Z,50.19
2023-07-02T14:52:37.478Z,49.44
2023-07-02T14:55:53.463Z,50.96
2023-07-02T14:59:01.485Z,50.65
2023-07-02T15:02:10.052Z,50.20
2023-07-02T15:05:18.613Z,51.38
2023-07-02T15:08:27.013Z,52.04
2023-07-02T15:11:41.562Z,52.12
2023-07-02T15:14:56.446Z,52.10
2023-07-02T15:18:05.138Z,51.59
2023-07-02T15:21:20.477Z,52.10
2023-07-02T15:24:29.106Z,52.66
2023-07-02T15:27:37.465Z,50.90
2023-07-02T15:30:46.017Z,51.39
2023-07-02T15:33:54.457Z,51.55
2023-07-02T15:37:09.464Z,50.84
2023-07-02T15:40:18.116Z,49.36
2023-07-02T15:43:26.527Z,47.76
2023-07-02T15:46:41.506Z,47.32
2023-07-02T15:49:49.561Z,46.52
2023-07-02T15:53:04.751Z,47.09
2023-07-02T15:56:19.477Z,47.10
2023-07-02T15:59:28.177Z,46.57
2023-07-02T16:02:36.602Z,47.00
2023-07-02T16:05:53.747Z,45.21
2023-07-02T16:08:58.499Z,44.64
2023-07-02T16:12:15.551Z,44.77
2023-07-02T16:15:17.552Z,44.96
2023-07-02T16:18:32.494Z,45.84
2023-07-02T16:21:47.503Z,45.34
2023-07-02T16:24:55.538Z,45.96
2023-07-02T16:28:04.165Z,46.49
2023-07-02T16:31:21.113Z,48.04
2023-07-02T16:34:24.736Z,50.33
2023-07-02T16:37:39.517Z,51.46
2023-07-02T16:40:48.706Z,51.32
2023-07-02T16:44:03.495Z,52.88
2023-07-02T16:47:12.253Z,53.70
2023-07-02T16:50:28.495Z,53.76
2023-07-02T16:53:50.493Z,53.72
2023-07-02T16:56:58.302Z,50.50
2023-07-02T17:00:15.558Z,49.33
2023-07-02T17:03:17.827Z,48.37
2023-07-02T17:06:32.497Z,48.67
2023-07-02T17:09:48.496Z,48.92
2023-07-02T17:13:03.510Z,49.17
2023-07-02T17:16:18.518Z,49.33
2023-07-02T17:19:29.891Z,49.55
2023-07-02T17:22:38.511Z,49.60
2023-07-02T17:25:47.651Z,50.03
2023-07-02T17:29:02.510Z,50.36
2023-07-02T17:32:11.572Z,50.51
2023-07-02T17:35:20.531Z,50.50
2023-07-02T17:38:29.509Z,50.96
2023-07-02T17:41:45.522Z,51.53
2023-07-02T17:44:54.498Z,51.62
2023-07-02T17:48:11.537Z,52.99
2023-07-02T17:51:20.303Z,53.78
2023-07-02T17:54:50.523Z,54.41
2023-07-02T17:58:05.508Z,55.95
2023-07-02T18:01:07.458Z,56.06
2023-07-02T18:04:23.649Z,56.80
2023-07-02T18:07:35.523Z,57.38
2023-07-02T18:10:57.430Z,57.38
2023-07-02T18:14:07.531Z,57.81
2023-07-02T18:17:23.554Z,57.80
2023-07-02T18:20:38.551Z,57.82
2023-07-02T18:23:53.502Z,58.05
2023-07-02T18:26:55.921Z,56.94
2023-07-02T18:30:11.554Z,56.81
2023-07-02T18:33:14.335Z,56.83
2023-07-02T18:36:30.517Z,56.59
2023-07-02T18:39:48.531Z,56.50
2023-07-02T18:42:51.601Z,56.66
2023-07-02T18:46:08.617Z,57.09
2023-07-02T18:49:18.526Z,56.87
2023-07-02T18:52:35.573Z,57.21
2023-07-02T18:56:11.546Z,57.47
2023-07-02T18:59:14.828Z,57.09
2023-07-02T19:02:33.410Z,57.55
2023-07-02T19:05:43.333Z,57.37
2023-07-02T19:08:59.560Z,57.15
2023-07-02T19:12:16.684Z,57.52
2023-07-02T19:15:25.435Z,57.88
2023-07-02T19:18:34.754Z,58.27
2023-07-02T19:21:43.328Z,58.59
2023-07-02T19:24:51.586Z,58.95
2023-07-02T19:28:07.619Z,59.34
2023-07-02T19:31:22.605Z,59.84
2023-07-02T19:34:31.536Z,60.36
2023-07-02T19:37:40.145Z,60.33
2023-07-02T19:41:04.560Z,60.62
2023-07-02T19:44:15.167Z,60.66
2023-07-02T19:47:30.603Z,61.06
2023-07-02T19:50:39.567Z,61.96
2023-07-02T19:53:54.573Z,61.71
2023-07-02T19:57:02.641Z,62.28
2023-07-02T20:00:12.041Z,62.13
2023-07-02T20:03:21.655Z,62.52
2023-07-02T20:06:32.124Z,62.65
2023-07-02T20:09:48.561Z,63.06
2023-07-02T20:12:50.661Z,63.25
2023-07-02T20:16:08.631Z,63.57
2023-07-02T20:19:20.196Z,63.54
2023-07-02T20:22:30.621Z,63.70
2023-07-02T20:25:50.101Z,63.64
2023-07-02T20:28:59.584Z,63.75
2023-07-02T20:32:08.642Z,63.24
2023-07-02T20:35:23.573Z,63.72
2023-07-02T20:38:32.583Z,63.02
2023-07-02T20:41:47.571Z,63.23
2023-07-02T20:45:02.572Z,62.67
2023-07-02T20:48:05.410Z,62.81
2023-07-02T20:51:20.608Z,62.72
2023-07-02T20:54:28.954Z,62.57
2023-07-02T20:57:43.574Z,62.85
2023-07-02T21:01:03.381Z,63.19
2023-07-02T21:04:11.723Z,63.51
2023-07-02T21:07:26.598Z,63.74
2023-07-02T21:10:28.447Z,63.85
2023-07-02T21:13:43.576Z,64.18
2023-07-02T21:16:51.673Z,64.35
2023-07-02T21:20:01.998Z,64.60
2023-07-02T21:23:16.587Z,64.57
2023-07-02T21:26:25.130Z,64.88
2023-07-02T21:29:39.576Z,64.88
2023-07-02T21:32:47.637Z,64.84
2023-07-02T21:36:10.595Z,65.58
2023-07-02T21:39:12.503Z,65.14
2023-07-02T21:42:27.610Z,65.37
2023-07-02T21:45:35.632Z,65.46
2023-07-02T21:48:44.116Z,65.43
2023-07-02T21:51:52.599Z,65.64
2023-07-02T21:55:14.612Z,65.42
2023-07-02T21:58:23.627Z,65.79
2023-07-02T22:01:38.706Z,65.88
2023-07-02T22:04:47.347Z,65.91
2023-07-02T22:08:02.594Z,66.07
2023-07-02T22:11:20.691Z,66.02
2023-07-02T22:14:36.600Z,66.38
2023-07-02T22:17:51.600Z,66.16
2023-07-02T22:20:59.608Z,66.70
2023-07-02T22:24:08.135Z,66.88
2023-07-02T22:27:22.604Z,66.83
2023-07-02T22:30:37.593Z,66.62
2023-07-02T22:33:45.637Z,67.32
2023-07-02T22:36:54.210Z,67.08
2023-07-02T22:40:02.634Z,67.08
2023-07-02T22:43:11.176Z,67.36
2023-07-02T22:46:19.687Z,67.51
2023-07-02T22:49:28.222Z,67.40
2023-07-02T22:52:42.635Z,67.39
2023-07-02T22:55:57.613Z,67.54
2023-07-02T22:59:06.239Z,67.64
2023-07-02T23:02:14.657Z,67.80
2023-07-02T23:05:29.706Z,68.15
2023-07-02T23:08:38.615Z,68.14
2023-07-02T23:11:48.176Z,68.15
2023-07-02T23:14:56.600Z,68.22
2023-07-02T23:18:11.600Z,68.33
2023-07-02T23:21:13.482Z,68.39
2023-07-02T23:24:28.632Z,68.85
2023-07-02T23:27:30.560Z,68.65
2023-07-02T23:30:45.618Z,68.78
2023-07-02T23:33:54.260Z,68.63
2023-07-02T23:37:08.618Z,68.81
2023-07-02T23:40:11.019Z,69.02
2023-07-02T23:43:25.603Z,69.68
2023-07-02T23:46:27.495Z,69.12
2023-07-02T23:49:42.638Z,69.53
2023-07-02T23:52:48.513Z,69.23
2023-07-02T23:56:03.641Z,69.53
2023-07-02T23:59:11.639Z,69.44
